Time;durP1;ratioP1;P1;durP2;ratioP2;P2;SDS_P1;SDS_P2;PMS_P1;PMS_P2;Temp;Humidity;BMP_temperature;BMP_pressure;BME280_temperature;BME280_humidity;BME280_pressure;Samples;Min_cycle;Max_cycle;Signal;HPM_P1;HPM_P2
2023/11/15 00:02:17;;;;;;;4.20;2.28;;;;;;;11.17;100.00;100031.47;5083351;28;20039;-64
2023/11/15 00:04:43;;;;;;;4.53;2.63;;;;;;;11.15;100.00;100030.81;5083294;28;20024;-64
2023/11/15 00:07:09;;;;;;;4.22;2.28;;;;;;;11.15;100.00;100028.19;5083100;28;20032;-64
2023/11/15 00:09:34;;;;;;;5.60;2.75;;;;;;;11.15;100.00;100020.38;5083131;28;20025;-64
2023/11/15 00:12:00;;;;;;;4.82;2.47;;;;;;;11.14;100.00;100024.78;5083266;28;20067;-64
2023/11/15 00:14:25;;;;;;;6.80;2.65;;;;;;;11.13;100.00;100027.53;5085673;28;20032;-64
2023/11/15 00:16:51;;;;;;;4.65;2.70;;;;;;;11.14;100.00;100016.94;5112409;28;20031;-64
2023/11/15 00:19:17;;;;;;;6.10;2.55;;;;;;;11.15;100.00;100015.97;5092300;28;20445;-64
2023/11/15 00:21:43;;;;;;;5.25;2.65;;;;;;;11.18;100.00;100014.84;5087862;28;20038;-65
2023/11/15 00:24:09;;;;;;;5.47;3.03;;;;;;;11.17;100.00;100014.03;5083059;28;20056;-64
2023/11/15 00:26:36;;;;;;;6.45;2.97;;;;;;;11.15;100.00;100015.97;5082626;28;20213;-64
2023/11/15 00:29:03;;;;;;;7.50;3.10;;;;;;;11.16;100.00;100017.59;5084480;28;20416;-64
2023/11/15 00:31:29;;;;;;;5.93;3.15;;;;;;;11.19;100.00;100017.28;5082207;28;20075;-64
2023/11/15 00:33:55;;;;;;;11.27;3.40;;;;;;;11.21;100.00;100023.16;5083266;28;20052;-64
2023/11/15 00:36:20;;;;;;;8.85;3.78;;;;;;;11.22;100.00;100022.19;5082477;28;20061;-64
2023/11/15 00:38:51;;;;;;;11.13;4.13;;;;;;;11.23;100.00;100023.00;5081886;28;20824;-64
2023/11/15 00:41:18;;;;;;;7.30;3.75;;;;;;;11.25;100.00;100027.09;5082827;28;20083;-64
2023/11/15 00:43:44;;;;;;;8.35;3.90;;;;;;;11.25;100.00;100028.88;5081844;28;20032;-64
2023/11/15 00:46:12;;;;;;;10.90;3.78;;;;;;;11.24;100.00;100020.25;5083700;28;20036;-64
2023/11/15 00:48:40;;;;;;;7.13;2.83;;;;;;;11.24;100.00;100014.22;5085873;28;20035;-64
2023/11/15 00:51:06;;;;;;;4.40;2.67;;;;;;;11.26;100.00;100018.28;5082023;27;20036;-64
2023/11/15 00:53:33;;;;;;;5.78;3.13;;;;;;;11.27;100.00;100026.94;5082267;28;20071;-64
2023/11/15 00:55:58;;;;;;;5.63;2.58;;;;;;;11.29;100.00;100017.16;5082538;28;20028;-64
2023/11/15 00:58:29;;;;;;;5.97;2.92;;;;;;;11.28;100.00;100020.75;5081891;28;20039;-64
2023/11/15 01:00:59;;;;;;;5.07;2.05;;;;;;;11.26;100.00;100025.28;5085426;28;20110;-64
2023/11/15 01:03:29;;;;;;;5.43;2.55;;;;;;;11.22;100.00;100032.63;5091071;28;20059;-64
2023/11/15 01:05:56;;;;;;;8.80;2.90;;;;;;;11.20;100.00;100037.19;5088702;28;20032;-64
2023/11/15 01:08:25;;;;;;;5.07;2.40;;;;;;;11.17;100.00;100044.50;5100505;28;20040;-64
2023/11/15 01:10:54;;;;;;;6.55;2.47;;;;;;;11.15;100.00;100046.44;5086129;28;20907;-64
2023/11/15 01:13:20;;;;;;;4.90;2.15;;;;;;;11.14;100.00;100045.63;5081805;28;20039;-64
2023/11/15 01:15:46;;;;;;;6.07;2.45;;;;;;;11.14;100.00;100050.03;5081693;28;20032;-64
2023/11/15 01:18:12;;;;;;;2.38;1.48;;;;;;;11.11;100.00;100055.56;5083796;28;20028;-64
2023/11/15 01:20:38;;;;;;;3.15;1.60;;;;;;;11.10;100.00;100056.53;5081346;28;20031;-64
2023/11/15 01:23:05;;;;;;;3.60;0.90;;;;;;;11.09;100.00;100067.94;5081502;28;20089;-64
2023/11/15 01:25:34;;;;;;;2.33;1.20;;;;;;;11.07;100.00;100073.31;5082174;28;20063;-64
2023/11/15 01:27:59;;;;;;;2.97;1.25;;;;;;;11.06;100.00;100076.06;5082042;28;20028;-64
2023/11/15 01:30:28;;;;;;;3.13;0.88;;;;;;;11.05;100.00;100082.25;5082047;28;20044;-64
2023/11/15 01:32:54;;;;;;;1.60;0.80;;;;;;;11.03;100.00;100068.56;5094701;28;20383;-64
2023/11/15 01:35:23;;;;;;;2.45;0.70;;;;;;;10.99;100.00;100070.66;5095046;28;20359;-64
2023/11/15 01:37:50;;;;;;;2.03;0.50;;;;;;;10.95;100.00;100057.13;5107774;28;20145;-64
2023/11/15 01:40:16;;;;;;;1.20;0.70;;;;;;;10.95;100.00;100064.13;5090525;28;20032;-64
2023/11/15 01:42:42;;;;;;;1.20;0.50;;;;;;;10.94;100.00;100060.69;5097191;28;20039;-64
2023/11/15 01:45:07;;;;;;;1.42;0.63;;;;;;;10.97;100.00;100070.00;5079886;28;20064;-64
2023/11/15 01:47:34;;;;;;;2.35;0.65;;;;;;;10.97;100.00;100070.81;5079967;28;20036;-64
2023/11/15 01:50:00;;;;;;;0.95;0.55;;;;;;;10.97;100.00;100067.38;5080738;28;20085;-64
2023/11/15 01:52:27;;;;;;;1.08;0.50;;;;;;;10.97;100.00;100075.22;5081214;28;20045;-64
2023/11/15 01:54:58;;;;;;;1.17;0.50;;;;;;;10.97;100.00;100075.22;5081663;28;20028;-64
2023/11/15 01:57:24;;;;;;;1.55;0.60;;;;;;;10.96;100.00;100069.19;5080974;28;20491;-64
2023/11/15 01:59:50;;;;;;;1.92;0.60;;;;;;;10.96;100.00;100071.78;5080658;28;20059;-64
2023/11/15 02:02:15;;;;;;;1.40;0.63;;;;;;;10.96;100.00;100070.97;5080260;28;20101;-64
2023/11/15 02:04:41;;;;;;;1.75;0.73;;;;;;;10.96;100.00;100079.59;5080516;28;20071;-64
2023/11/15 02:07:08;;;;;;;1.48;0.60;;;;;;;10.94;100.00;100071.13;5081235;28;20028;-64
2023/11/15 02:09:35;;;;;;;0.98;0.55;;;;;;;10.93;100.00;100069.50;5080322;28;20032;-64
2023/11/15 02:12:00;;;;;;;1.27;0.57;;;;;;;10.93;100.00;100060.84;5081135;28;20024;-64
2023/11/15 02:14:30;;;;;;;2.15;0.40;;;;;;;10.93;100.00;100060.84;5081187;28;20036;-64
2023/11/15 02:16:55;;;;;;;1.17;0.57;;;;;;;10.93;100.00;100059.06;5080181;28;20034;-64
2023/11/15 02:19:21;;;;;;;1.63;0.63;;;;;;;10.92;100.00;100052.22;5083500;28;20044;-64
2023/11/15 02:21:46;;;;;;;1.98;0.70;;;;;;;10.89;100.00;100046.50;5081242;28;20032;-64
2023/11/15 02:24:12;;;;;;;0.85;0.50;;;;;;;10.89;100.00;100041.28;5082949;28;20035;-64
2023/11/15 02:26:37;;;;;;;4.03;0.60;;;;;;;10.88;100.00;100035.25;5080996;28;20028;-64
2023/11/15 02:29:03;;;;;;;0.80;0.50;;;;;;;10.86;100.00;100037.22;5080892;28;20058;-64
2023/11/15 02:31:29;;;;;;;0.85;0.35;;;;;;;10.87;100.00;100040.66;5074281;28;20036;-64
2023/11/15 02:33:54;;;;;;;2.38;1.20;;;;;;;10.87;100.00;100043.25;5079954;28;20388;-64
2023/11/15 02:36:20;;;;;;;1.20;0.50;;;;;;;10.87;100.00;100038.84;5080119;28;20075;-64
2023/11/15 02:38:45;;;;;;;1.45;0.57;;;;;;;10.88;100.00;100057.91;5079841;28;20024;-64
2023/11/15 02:41:12;;;;;;;3.35;0.40;;;;;;;10.88;100.00;100061.31;5078330;28;20039;-64
2023/11/15 02:43:38;;;;;;;1.55;0.60;;;;;;;10.87;100.00;100064.09;5080630;28;20459;-64
2023/11/15 02:46:03;;;;;;;2.58;0.52;;;;;;;10.87;100.00;100066.72;5080087;28;20058;-64
2023/11/15 02:48:29;;;;;;;1.77;0.80;;;;;;;10.85;100.00;100050.41;5080315;28;20028;-64
2023/11/15 02:50:54;;;;;;;2.78;0.63;;;;;;;10.85;100.00;100060.84;5080131;28;20097;-64
2023/11/15 02:53:20;;;;;;;2.33;0.82;;;;;;;10.84;100.00;100062.63;5079558;28;20047;-64
2023/11/15 02:55:46;;;;;;;1.33;0.50;;;;;;;10.82;100.00;100077.59;5078810;28;20028;-64
2023/11/15 02:58:14;;;;;;;1.88;0.95;;;;;;;10.82;100.00;100058.53;5079803;28;20043;-64
2023/11/15 03:00:39;;;;;;;1.10;0.55;;;;;;;10.82;100.00;100064.56;5080476;28;20464;-64
2023/11/15 03:03:05;;;;;;;1.85;0.60;;;;;;;10.81;100.00;100065.53;5079934;28;20035;-64
2023/11/15 03:05:31;;;;;;;2.75;0.52;;;;;;;10.81;100.00;100070.75;5079173;28;20036;-64
2023/11/15 03:07:57;;;;;;;1.00;0.52;;;;;;;10.80;100.00;100074.34;5080236;28;20063;-64
2023/11/15 03:10:23;;;;;;;2.28;0.73;;;;;;;10.82;100.00;100077.59;5078657;28;20483;-64
2023/11/15 03:12:48;;;;;;;1.20;0.50;;;;;;;10.82;100.00;100063.75;5078742;28;20036;-64
2023/11/15 03:15:14;;;;;;;2.88;0.40;;;;;;;10.81;100.00;100068.16;5083808;28;20035;-64
2023/11/15 03:17:40;;;;;;;3.65;0.60;;;;;;;10.82;100.00;100077.59;5082857;28;20031;-64
2023/11/15 03:20:06;;;;;;;0.95;0.50;;;;;;;10.80;100.00;100073.53;5082592;28;20032;-64
2023/11/15 03:22:32;;;;;;;2.35;0.40;;;;;;;10.78;100.00;100081.50;5083823;28;20782;-64
2023/11/15 03:24:58;;;;;;;1.40;0.40;;;;;;;10.80;100.00;100081.34;5083953;28;20034;-64
2023/11/15 03:27:23;;;;;;;1.02;0.50;;;;;;;10.80;100.00;100079.53;5082356;28;20028;-64
2023/11/15 03:29:49;;;;;;;1.98;0.60;;;;;;;10.80;100.00;100071.72;5084705;28;20076;-64
2023/11/15 03:32:15;;;;;;;2.33;0.32;;;;;;;10.81;100.00;100077.75;5083981;28;20496;-64
2023/11/15 03:34:41;;;;;;;1.35;0.52;;;;;;;10.81;100.00;100091.59;5093336;28;20028;-64
2023/11/15 03:37:08;;;;;;;0.90;0.40;;;;;;;10.81;100.00;100085.56;5092155;28;20110;-64
2023/11/15 03:39:34;;;;;;;0.85;0.30;;;;;;;10.82;100.00;100088.03;5092105;28;20371;-64
2023/11/15 03:42:00;;;;;;;1.70;0.65;;;;;;;10.82;100.00;100085.44;5087295;28;20135;-64
2023/11/15 03:44:25;;;;;;;1.95;0.40;;;;;;;10.81;100.00;100082.97;5083377;28;20547;-64
2023/11/15 03:46:51;;;;;;;1.73;0.60;;;;;;;10.80;100.00;100089.16;5082603;28;20047;-64
2023/11/15 03:49:16;;;;;;;2.63;0.77;;;;;;;10.78;100.00;100086.69;5084712;28;20061;-64
2023/11/15 03:51:42;;;;;;;2.00;0.60;;;;;;;10.78;100.00;100086.69;5082084;28;20039;-64
2023/11/15 03:54:08;;;;;;;2.70;0.85;;;;;;;10.79;100.00;100088.34;5082469;28;20024;-64
2023/11/15 03:56:34;;;;;;;2.90;0.60;;;;;;;10.77;100.00;100092.06;5085561;28;20043;-64
2023/11/15 03:58:59;;;;;;;1.33;0.60;;;;;;;10.78;100.00;100091.91;5091942;28;20035;-64
2023/11/15 04:01:25;;;;;;;1.10;0.60;;;;;;;10.81;100.00;100089.00;5092069;28;20036;-64
2023/11/15 04:03:51;;;;;;;2.80;0.60;;;;;;;10.84;100.00;100086.09;5092006;28;20495;-64
2023/11/15 04:06:16;;;;;;;2.15;0.60;;;;;;;10.86;100.00;100091.97;5091151;28;20036;-64
2023/11/15 04:08:42;;;;;;;1.60;0.70;;;;;;;10.88;100.00;100097.81;5087332;28;20044;-64
2023/11/15 04:11:08;;;;;;;1.30;0.50;;;;;;;10.90;100.00;100093.25;5082961;28;20024;-64
2023/11/15 04:13:36;;;;;;;1.52;0.82;;;;;;;10.91;100.00;100094.88;5081897;28;20787;-64
2023/11/15 04:16:03;;;;;;;8.45;0.80;;;;;;;10.92;100.00;100101.72;5082465;28;20064;-64
2023/11/15 04:18:30;;;;;;;2.13;0.77;;;;;;;10.92;100.00;100091.31;5082746;28;20024;-64
2023/11/15 04:20:56;;;;;;;2.17;0.68;;;;;;;10.92;100.00;100093.91;5091943;28;20057;-64
2023/11/15 04:23:23;;;;;;;1.20;0.73;;;;;;;10.95;100.00;100104.03;5093926;28;20048;-64
2023/11/15 04:25:50;;;;;;;1.50;0.50;;;;;;;10.96;100.00;100104.84;5094584;28;20466;-64
2023/11/15 04:28:17;;;;;;;1.35;0.43;;;;;;;10.96;100.00;100113.50;5102079;28;20483;-64
2023/11/15 04:30:43;;;;;;;0.70;0.40;;;;;;;10.97;100.00;100122.13;5090906;28;20040;-64
2023/11/15 04:33:09;;;;;;;1.58;0.60;;;;;;;10.97;100.00;100122.94;5098641;28;20124;-64
2023/11/15 04:35:35;;;;;;;1.63;0.70;;;;;;;10.96;100.00;100131.72;5102117;28;20089;-64
2023/11/15 04:38:03;;;;;;;1.67;0.88;;;;;;;10.98;100.00;100131.59;5092754;28;20036;-64
2023/11/15 04:40:29;;;;;;;2.45;0.60;;;;;;;10.98;100.00;100126.38;5093808;28;20024;-64
2023/11/15 04:42:55;;;;;;;1.15;0.38;;;;;;;10.98;100.00;100124.56;5100980;28;20060;-64
2023/11/15 04:45:21;;;;;;;1.77;0.50;;;;;;;11.00;100.00;100128.81;5088065;28;20075;-64
2023/11/15 04:47:46;;;;;;;2.55;0.77;;;;;;;10.97;100.00;100129.94;5082121;28;20483;-64
2023/11/15 04:50:12;;;;;;;2.97;0.82;;;;;;;10.97;100.00;100135.97;5085001;28;20035;-64
2023/11/15 04:52:37;;;;;;;5.93;0.98;;;;;;;11.00;100.00;100134.03;5084852;28;20067;-64
2023/11/15 04:55:03;;;;;;;3.85;1.85;;;;;;;11.02;100.00;100139.91;5082752;28;20040;-64
2023/11/15 04:57:29;;;;;;;2.38;0.80;;;;;;;11.03;100.00;100144.16;5082166;28;20093;-64
2023/11/15 04:59:55;;;;;;;2.13;1.02;;;;;;;10.99;100.00;100143.66;5082716;28;20059;-64
2023/11/15 05:02:22;;;;;;;3.15;0.73;;;;;;;11.00;100.00;100147.06;5094118;28;20100;-64
2023/11/15 05:04:48;;;;;;;2.05;0.60;;;;;;;11.00;100.00;100149.69;5097189;27;20443;-64
2023/11/15 05:07:14;;;;;;;2.40;0.82;;;;;;;11.00;100.00;100149.69;5081483;28;20065;-64
2023/11/15 05:09:40;;;;;;;3.75;0.80;;;;;;;11.01;100.00;100143.50;5080808;28;20036;-64
2023/11/15 05:12:05;;;;;;;2.63;0.75;;;;;;;11.01;100.00;100154.72;5081372;28;20079;-64
2023/11/15 05:14:31;;;;;;;2.47;0.80;;;;;;;11.02;100.00;100161.59;5079320;28;20096;-64
2023/11/15 05:16:57;;;;;;;4.80;1.67;;;;;;;11.03;100.00;100173.66;5080400;28;20175;-64
2023/11/15 05:19:22;;;;;;;4.90;2.28;;;;;;;11.02;100.00;100171.19;5082799;28;20027;-64
2023/11/15 05:21:47;;;;;;;3.03;1.55;;;;;;;11.02;100.00;100177.22;5081506;28;20791;-64
2023/11/15 05:24:13;;;;;;;3.95;1.20;;;;;;;11.01;100.00;100170.38;5082507;28;20024;-64
2023/11/15 05:26:38;;;;;;;3.92;1.40;;;;;;;11.04;100.00;100167.47;5080329;28;20044;-64
2023/11/15 05:29:04;;;;;;;1.90;0.95;;;;;;;11.00;100.00;100166.13;5081558;28;20570;-64
2023/11/15 05:31:29;;;;;;;3.45;1.10;;;;;;;10.93;100.00;100160.72;5081922;28;20119;-64
2023/11/15 05:33:55;;;;;;;3.47;1.02;;;;;;;10.93;100.00;100162.50;5081130;28;20059;-64
2023/11/15 05:36:22;;;;;;;2.00;0.80;;;;;;;10.94;100.00;100164.97;5081582;28;20047;-64
2023/11/15 05:38:48;;;;;;;2.47;0.90;;;;;;;10.93;100.00;100167.72;5079822;28;20040;-64
2023/11/15 05:41:13;;;;;;;4.18;1.58;;;;;;;10.93;100.00;100170.31;5081749;28;20399;-64
2023/11/15 05:43:40;;;;;;;3.90;1.10;;;;;;;10.85;100.00;100176.34;5080584;28;20036;-64
2023/11/15 05:46:06;;;;;;;4.13;1.33;;;;;;;10.85;100.00;100180.72;5084445;28;20046;-64
2023/11/15 05:48:33;;;;;;;3.10;0.70;;;;;;;10.85;100.00;100185.94;5093794;28;20307;-64
2023/11/15 05:50:59;;;;;;;3.53;1.13;;;;;;;10.87;100.00;100184.00;5080572;28;20460;-64
2023/11/15 05:53:24;;;;;;;2.83;1.27;;;;;;;10.87;100.00;100190.00;5081281;28;20101;-64
2023/11/15 05:55:50;;;;;;;5.45;1.33;;;;;;;10.87;100.00;100195.22;5080571;28;20380;-64
2023/11/15 05:58:15;;;;;;;4.88;1.00;;;;;;;10.86;100.00;100209.25;5081441;28;20039;-64
2023/11/15 06:00:40;;;;;;;6.55;1.05;;;;;;;10.88;100.00;100216.88;5082743;28;20024;-64
2023/11/15 06:03:06;;;;;;;2.58;0.82;;;;;;;10.91;100.00;100224.41;5080614;28;20056;-64
2023/11/15 06:05:32;;;;;;;4.30;1.02;;;;;;;10.91;100.00;100229.59;5081892;28;20031;-64
2023/11/15 06:07:57;;;;;;;3.30;0.93;;;;;;;10.90;100.00;100228.78;5082018;28;20118;-64
2023/11/15 06:10:23;;;;;;;2.65;0.95;;;;;;;10.91;100.00;100224.41;5079716;28;20032;-64
2023/11/15 06:12:48;;;;;;;5.38;0.95;;;;;;;10.91;100.00;100235.63;5078759;28;20043;-64
2023/11/15 06:15:14;;;;;;;4.43;1.15;;;;;;;10.90;100.00;100228.78;5080628;28;20050;-64
2023/11/15 06:17:41;;;;;;;4.88;0.80;;;;;;;10.92;100.00;100234.66;5079162;28;20032;-64
2023/11/15 06:20:11;;;;;;;8.48;1.45;;;;;;;10.95;100.00;100244.78;5082551;28;20035;-64
2023/11/15 06:22:40;;;;;;;8.82;1.38;;;;;;;10.97;100.00;100247.25;5079900;28;20086;-64
2023/11/15 06:25:07;;;;;;;3.38;1.40;;;;;;;11.00;100.00;100235.69;5081269;28;20123;-64
2023/11/15 06:27:33;;;;;;;4.50;1.33;;;;;;;11.01;100.00;100243.38;5079518;28;20024;-64
2023/11/15 06:30:00;;;;;;;7.50;1.58;;;;;;;11.02;100.00;100241.59;5081005;28;20467;-64
2023/11/15 06:32:27;;;;;;;7.13;1.67;;;;;;;11.05;100.00;100254.31;5079910;28;20043;-64
2023/11/15 06:34:52;;;;;;;5.30;1.73;;;;;;;11.06;100.00;100253.34;5084118;28;20051;-64
2023/11/15 06:37:18;;;;;;;3.20;1.50;;;;;;;11.09;100.00;100266.06;5091016;28;20030;-64
2023/11/15 06:39:43;;;;;;;5.28;2.15;;;;;;;11.08;100.00;100280.91;5089503;28;20058;-64
2023/11/15 06:42:10;;;;;;;9.45;2.47;;;;;;;11.10;100.00;100278.13;5087102;28;20069;-64
2023/11/15 06:44:38;;;;;;;7.65;2.53;;;;;;;11.11;100.00;100290.22;5088624;28;20372;-64
2023/11/15 06:47:03;;;;;;;5.05;1.08;;;;;;;11.11;100.00;100291.03;5086650;28;20032;-64
2023/11/15 06:49:29;;;;;;;5.35;1.30;;;;;;;11.13;100.00;100294.31;5078993;28;20895;-64
2023/11/15 06:51:55;;;;;;;4.45;1.92;;;;;;;11.13;100.00;100289.09;5081092;28;20036;-64
2023/11/15 06:54:21;;;;;;;9.18;1.73;;;;;;;11.16;100.00;100301.00;5079260;28;20032;-64
2023/11/15 06:56:48;;;;;;;4.95;1.98;;;;;;;11.15;100.00;100300.19;5080700;28;20141;-64
2023/11/15 06:59:14;;;;;;;4.78;1.92;;;;;;;11.16;100.00;100299.22;5081292;28;20056;-64
2023/11/15 07:01:40;;;;;;;7.85;1.60;;;;;;;11.15;100.00;100307.19;5089771;28;20394;-64
2023/11/15 07:04:05;;;;;;;5.72;1.85;;;;;;;11.18;100.00;100305.09;5088883;28;20050;-64
2023/11/15 07:06:32;;;;;;;6.50;2.10;;;;;;;11.19;100.00;100314.56;5088100;28;20063;-64
2023/11/15 07:08:59;;;;;;;6.25;1.92;;;;;;;11.17;100.00;100320.91;5088338;28;20078;-64
2023/11/15 07:11:24;;;;;;;8.38;2.67;;;;;;;11.19;100.00;100325.00;5085711;28;20487;-64
2023/11/15 07:13:50;;;;;;;11.30;2.38;;;;;;;11.25;100.00;100328.78;5081074;28;20036;-64
2023/11/15 07:16:16;;;;;;;5.80;2.50;;;;;;;11.28;100.00;100341.53;5079504;28;20047;-64
2023/11/15 07:18:42;;;;;;;7.35;2.40;;;;;;;11.30;100.00;100334.38;5079644;28;20054;-64
2023/11/15 07:21:07;;;;;;;9.82;2.95;;;;;;;11.32;100.00;100340.25;5082140;28;20040;-64
2023/11/15 07:23:34;;;;;;;10.38;2.10;;;;;;;11.35;100.00;100350.34;5079096;28;20040;-64
2023/11/15 07:25:59;;;;;;;7.18;2.83;;;;;;;11.36;100.00;100370.25;5079283;28;20047;-64
2023/11/15 07:28:25;;;;;;;6.85;2.10;;;;;;;11.35;100.00;100373.00;5079896;28;20360;-64
2023/11/15 07:30:51;;;;;;;8.52;3.45;;;;;;;11.36;100.00;100362.41;5077814;28;20031;-63
2023/11/15 07:33:22;;;;;;;5.55;3.10;;;;;;;11.41;100.00;100354.13;5081222;28;20032;-64
2023/11/15 07:35:48;;;;;;;8.57;2.88;;;;;;;11.36;100.00;100351.16;5079841;28;20036;-64
2023/11/15 07:38:15;;;;;;;4.30;2.05;;;;;;;11.35;100.00;100358.16;5079618;28;20024;-64
2023/11/15 07:40:41;;;;;;;7.88;2.58;;;;;;;11.34;100.00;100361.78;5079330;28;20047;-64
2023/11/15 07:43:07;;;;;;;6.22;1.63;;;;;;;11.33;100.00;100370.56;5079326;28;20024;-69
2023/11/15 07:45:35;;;;;;;5.90;2.10;;;;;;;11.36;100.00;100367.63;5078140;28;20032;-64
2023/11/15 07:48:10;;;;;;;7.40;2.22;;;;;;;11.34;100.00;100359.19;5077324;28;20032;-62
2023/11/15 07:50:36;;;;;;;3.47;1.80;;;;;;;11.37;100.00;100363.25;5080578;28;20032;-62
2023/11/15 07:53:01;;;;;;;8.77;2.22;;;;;;;11.40;100.00;100368.97;5079733;28;20028;-62
2023/11/15 07:55:27;;;;;;;5.90;2.17;;;;;;;11.48;100.00;100378.66;5078135;28;20357;-62
2023/11/15 07:57:53;;;;;;;8.50;1.80;;;;;;;11.54;100.00;100376.25;5078407;28;20023;-63
2023/11/15 08:00:22;;;;;;;8.15;2.20;;;;;;;11.62;100.00;100376.31;5078604;28;20036;-62
2023/11/15 08:02:52;;;;;;;6.00;2.10;;;;;;;11.69;100.00;100368.69;5082358;28;20032;-62
2023/11/15 08:05:18;;;;;;;4.75;1.95;;;;;;;11.78;100.00;100373.03;5081341;28;20122;-64
2023/11/15 08:07:47;;;;;;;6.90;2.53;;;;;;;11.84;100.00;100368.94;5080518;28;20121;-63
2023/11/15 08:10:14;;;;;;;3.80;1.67;;;;;;;11.87;100.00;100376.47;5082491;28;20483;-63
2023/11/15 08:12:44;;;;;;;7.35;2.90;;;;;;;11.76;100.00;100374.13;5084062;28;20044;-63
2023/11/15 08:15:14;;;;;;;3.70;1.55;;;;;;;11.77;100.00;100378.41;5083621;28;20036;-63
2023/11/15 08:17:46;;;;;;;4.47;1.90;;;;;;;11.80;100.00;100378.91;5084704;28;20074;-63
2023/11/15 08:20:12;;;;;;;5.28;1.83;;;;;;;11.91;100.00;100383.03;5083220;28;20035;-63
2023/11/15 08:22:39;;;;;;;9.07;3.53;;;;;;;11.93;100.00;100383.69;5084419;28;20341;-63
2023/11/15 08:25:09;;;;;;;6.20;3.30;;;;;;;12.00;100.00;100391.72;5084377;28;20031;-63
2023/11/15 08:27:40;;;;;;;7.95;2.65;;;;;;;12.00;100.00;100400.38;5083790;28;20081;-63
2023/11/15 08:30:16;;;;;;;3.60;2.10;;;;;;;11.98;100.00;100388.44;5082682;28;20035;-63
2023/11/15 08:32:42;;;;;;;3.72;1.80;;;;;;;12.01;100.00;100394.19;5084058;28;20151;-63
2023/11/15 08:35:10;;;;;;;3.08;1.63;;;;;;;11.96;100.00;100386.81;5083457;28;20527;-63
2023/11/15 08:37:37;;;;;;;3.95;2.00;;;;;;;11.91;100.00;100383.03;5082912;28;20029;-63
2023/11/15 08:40:03;;;;;;;5.05;1.88;;;;;;;11.86;100.00;100375.66;5084100;28;20039;-63
2023/11/15 08:42:29;;;;;;;7.28;3.33;;;;;;;11.86;100.00;100365.22;5090518;28;20126;-63
2023/11/15 08:44:54;;;;;;;4.78;2.65;;;;;;;11.87;100.00;100372.06;5090944;28;20157;-63
2023/11/15 08:47:21;;;;;;;10.35;3.28;;;;;;;11.89;100.00;100380.56;5084063;28;20133;-63
2023/11/15 08:49:49;;;;;;;5.28;2.58;;;;;;;11.88;100.00;100378.94;5083806;28;20043;-63
2023/11/15 08:52:16;;;;;;;7.93;3.95;;;;;;;11.91;100.00;100386.47;5083340;28;20036;-64
2023/11/15 08:54:41;;;;;;;7.78;3.05;;;;;;;11.95;100.00;100373.91;5083161;28;20472;-63
2023/11/15 08:57:07;;;;;;;5.07;2.65;;;;;;;12.02;100.00;100379.34;5084420;28;20088;-63
2023/11/15 08:59:35;;;;;;;5.13;2.80;;;;;;;12.07;100.00;100371.84;5082890;28;20502;-64
2023/11/15 09:02:01;;;;;;;7.05;3.33;;;;;;;12.11;100.00;100365.34;5085109;28;20383;-64
2023/11/15 09:04:26;;;;;;;8.70;3.08;;;;;;;12.13;100.00;100361.59;5083682;28;20032;-64
2023/11/15 09:06:52;;;;;;;5.35;2.20;;;;;;;12.12;100.00;100359.16;5083520;28;20036;-64
2023/11/15 09:09:18;;;;;;;4.25;2.20;;;;;;;12.19;100.00;100373.22;5083018;28;20032;-65
2023/11/15 09:11:44;;;;;;;6.05;2.08;;;;;;;12.19;100.00;100362.78;5083404;28;20039;-63
2023/11/15 09:14:10;;;;;;;5.13;1.92;;;;;;;12.16;100.00;100368.31;5083946;28;20035;-63
2023/11/15 09:16:40;;;;;;;6.10;2.08;;;;;;;12.13;100.00;100382.50;5084299;28;20422;-63
2023/11/15 09:19:06;;;;;;;3.60;1.88;;;;;;;12.05;100.00;100390.28;5083172;28;20020;-63
2023/11/15 09:21:34;;;;;;;4.22;2.15;;;;;;;12.02;100.00;100385.38;5083146;28;20501;-63
2023/11/15 09:24:00;;;;;;;4.03;2.17;;;;;;;12.07;100.00;100392.75;5084104;28;20598;-63
2023/11/15 09:26:26;;;;;;;2.38;1.35;;;;;;;12.15;100.00;100393.59;5089100;28;20473;-63
2023/11/15 09:28:51;;;;;;;4.00;1.48;;;;;;;12.21;100.00;100386.94;5082960;28;20093;-63
2023/11/15 09:31:17;;;;;;;4.45;1.67;;;;;;;12.27;100.00;100388.94;5082657;28;20133;-64
2023/11/15 09:33:44;;;;;;;3.30;1.80;;;;;;;12.27;100.00;100391.53;5082584;28;20035;-63
2023/11/15 09:36:10;;;;;;;3.78;1.30;;;;;;;12.26;100.00;100398.56;5083536;28;20120;-64
2023/11/15 09:38:42;;;;;;;3.45;1.73;;;;;;;12.27;100.00;100400.19;5082778;28;20477;-65
2023/11/15 09:41:12;;;;;;;3.95;1.95;;;;;;;12.33;100.00;100396.09;5088459;28;20039;-65
2023/11/15 09:43:39;;;;;;;2.83;1.75;;;;;;;12.46;100.00;100406.13;5091282;28;20034;-65
2023/11/15 09:46:09;;;;;;;5.47;2.35;;;;;;;12.58;100.00;100397.03;5090930;28;20040;-65
2023/11/15 09:48:35;;;;;;;3.60;1.55;;;;;;;12.74;100.00;100398.88;5090829;28;20046;-64
2023/11/15 09:51:01;;;;;;;6.55;2.10;;;;;;;12.88;100.00;100393.00;5091261;28;20020;-65
2023/11/15 09:53:28;;;;;;;5.82;1.98;;;;;;;12.99;100.00;100399.72;5089949;28;20048;-64
2023/11/15 09:55:54;;;;;;;4.80;1.98;;;;;;;13.16;100.00;100401.41;5089586;28;20035;-65
2023/11/15 09:58:21;;;;;;;4.88;1.75;;;;;;;13.29;100.00;100409.56;5089785;28;20028;-65
2023/11/15 10:00:47;;;;;;;6.95;2.38;;;;;;;13.32;100.00;100409.25;5090777;28;20036;-65
2023/11/15 10:03:18;;;;;;;3.47;1.92;;;;;;;13.45;100.00;100400.91;5091694;28;20024;-65
2023/11/15 10:05:57;;;;;;;4.78;2.33;;;;;;;13.59;100.00;100406.31;5081890;28;20492;-65
2023/11/15 10:08:23;;;;;;;6.57;2.38;;;;;;;13.70;100.00;100409.56;5083144;28;20502;-65
2023/11/15 10:11:02;;;;;;;3.95;1.83;;;;;;;13.72;100.00;100407.56;5082109;28;20059;-65
2023/11/15 10:13:27;;;;;;;3.03;1.67;;;;;;;13.69;100.00;100406.13;5082792;28;21011;-65
2023/11/15 10:15:54;;;;;;;4.40;1.23;;;;;;;13.54;100.00;100405.97;5082702;28;20035;-65
2023/11/15 10:18:32;;;;;;;3.20;0.85;;;;;;;13.45;100.00;100411.38;5082540;28;20028;-66
2023/11/15 10:21:07;;;;;;;2.80;1.35;;;;;;;13.33;100.00;100408.25;5084340;28;20602;-65
2023/11/15 10:23:33;;;;;;;3.53;0.90;;;;;;;13.33;100.00;100410.06;5080860;28;20074;-65
2023/11/15 10:26:00;;;;;;;4.63;1.20;;;;;;;13.27;100.00;100391.41;5081450;28;20036;-65
2023/11/15 10:28:33;;;;;;;3.60;0.90;;;;;;;13.27;100.00;100382.75;5089746;28;20070;-65
2023/11/15 10:31:13;;;;;;;2.33;1.23;;;;;;;13.31;100.00;100384.06;5084881;28;20028;-65
2023/11/15 10:33:43;;;;;;;3.08;1.13;;;;;;;13.28;100.00;100385.19;5088348;28;20042;-65
2023/11/15 10:36:18;;;;;;;5.70;1.20;;;;;;;13.14;100.00;100383.22;5084376;28;20127;-65
2023/11/15 10:38:46;;;;;;;3.42;0.77;;;;;;;13.11;100.00;100387.97;5081277;28;20027;-65
2023/11/15 10:41:17;;;;;;;2.97;0.73;;;;;;;13.18;100.00;100378.53;5082012;28;20028;-65
2023/11/15 10:43:51;;;;;;;2.22;0.55;;;;;;;13.36;100.00;100379.16;5083195;28;20521;-65
2023/11/15 10:46:21;;;;;;;3.67;1.17;;;;;;;13.47;100.00;100381.44;5084936;28;20080;-66
2023/11/15 10:48:49;;;;;;;6.43;1.10;;;;;;;13.54;100.00;100385.03;5081632;28;20462;-66
2023/11/15 10:51:23;;;;;;;4.18;0.90;;;;;;;13.52;100.00;100388.81;5084400;28;20514;-65
2023/11/15 10:53:50;;;;;;;3.40;0.60;;;;;;;13.60;100.00;100394.84;5082304;28;20040;-65
2023/11/15 10:56:19;;;;;;;2.28;1.02;;;;;;;13.68;100.00;100391.41;5081127;28;20123;-66
2023/11/15 10:58:52;;;;;;;1.30;0.65;;;;;;;13.66;100.00;100395.16;5080782;28;20028;-65
2023/11/15 11:01:19;;;;;;;2.85;0.70;;;;;;;13.75;100.00;100389.72;5090746;28;20542;-67
2023/11/15 11:03:52;;;;;;;3.67;0.60;;;;;;;13.79;100.00;100396.28;5088412;28;20020;-66
2023/11/15 11:06:27;;;;;;;1.48;0.50;;;;;;;13.91;100.00;100396.75;5088297;28;20447;-66
2023/11/15 11:09:21;;;;;;;1.20;0.55;;;;;;;13.93;100.00;100394.78;5090640;28;20074;-66
2023/11/15 11:12:03;;;;;;;2.33;0.73;;;;;;;13.91;100.00;100396.75;5088997;28;20219;-66
2023/11/15 11:14:30;;;;;;;4.78;0.50;;;;;;;13.81;100.00;100394.31;5088769;28;20036;-66
2023/11/15 11:16:57;;;;;;;1.45;0.75;;;;;;;13.75;100.00;100402.81;5089278;28;20542;-66